Airfield :
LOGIN :

Register | Disclaimer

   EN    FR    IT 

 










Legend :    VFR   Marginal VFR   IFR   Intensive IFR   Very Intensive IFR
Visi :
Ceiling :
>= 8 km
>= 3000ft
5 to 8 km
1000 to 3000 ft
1500m to 5 km
500 to 1000 ft
800 to 1500m
200 to 500 ft
< 800m
< 200 ft
Symbols :   Thunderstorms  Fog  Heavy snow  Heavy precipitations  Wind > 20 kt
SIGMETs :     Misc.  Thunderstorms  Icing  Turbulence  Mountain Waves  Volcanic Ashes






- Airport Elevation : 364 ft
- IATA code : FRA


EDDF - Frankfurt Int.

CURRENT METAR :
  • 010350Z 07005KT CAVOK M00/M02 Q1033 NOSIG

EXPIRED METARs :
  • 010320Z 08006KT CAVOK 00/M01 Q1033 NOSIG
  • 010250Z 07007KT CAVOK 00/M01 Q1033 NOSIG
  • 010220Z 07005KT CAVOK 01/M01 Q1033 NOSIG
  • 010150Z 07005KT CAVOK 01/M01 Q1033 NOSIG
  • 010120Z 07005KT CAVOK 01/M00 Q1033 NOSIG
  • 010050Z 08003KT CAVOK 02/00 Q1033 NOSIG

TAF TAF EDDF
Valid from the 01 at 00:00 until the 02 at 06:00 UTC


282300Z 0100/0206 05006KT CAVOK
PROB30
TEMPO 0105/0108 4000 BR BKN005



MET'MAP, your aeronautical weather chart ! - Copyright ORBIFLY December 2007 - Disclaimer

ORBIFLY MET'MAP TEAM :

Programming & Development : Alexandra Zaïnal
Concept & original design : Baudouin d'Aumeries
Assistance for programming : Marc-Olivier Méhu
Technical & hardware support : Manuel Goepfert

Contact : metmap@orbifly.com




SOURCES & CREDITS :

   NOAA